sensor_id;sensor_type;location;lat;lon;timestamp;P1;durP1;ratioP1;P2;durP2;ratioP2
48002;SDS011;33768;48.578;11.574;2022-07-29T00:00:42;4.30;;;2.30;;
48002;SDS011;33768;48.578;11.574;2022-07-29T00:03:49;3.27;;;2.57;;
48002;SDS011;33768;48.578;11.574;2022-07-29T00:06:52;3.50;;;2.30;;
48002;SDS011;33768;48.578;11.574;2022-07-29T00:09:57;5.70;;;2.30;;
48002;SDS011;33768;48.578;11.574;2022-07-29T00:13:01;2.77;;;2.27;;
48002;SDS011;33768;48.578;11.574;2022-07-29T00:16:05;2.67;;;2.03;;
48002;SDS011;33768;48.578;11.574;2022-07-29T00:19:09;2.33;;;2.13;;
48002;SDS011;33768;48.578;11.574;2022-07-29T00:22:13;4.80;;;2.60;;
48002;SDS011;33768;48.578;11.574;2022-07-29T00:25:17;3.57;;;1.83;;
48002;SDS011;33768;48.578;11.574;2022-07-29T00:28:21;4.10;;;2.00;;
48002;SDS011;33768;48.578;11.574;2022-07-29T00:31:26;3.77;;;1.83;;
48002;SDS011;33768;48.578;11.574;2022-07-29T00:34:30;4.50;;;2.50;;
48002;SDS011;33768;48.578;11.574;2022-07-29T00:38:00;2.67;;;2.40;;
48002;SDS011;33768;48.578;11.574;2022-07-29T00:41:05;2.57;;;2.33;;
48002;SDS011;33768;48.578;11.574;2022-07-29T00:44:09;2.77;;;2.30;;
48002;SDS011;33768;48.578;11.574;2022-07-29T00:47:13;2.70;;;2.50;;
48002;SDS011;33768;48.578;11.574;2022-07-29T00:50:17;3.53;;;2.80;;
48002;SDS011;33768;48.578;11.574;2022-07-29T00:53:21;3.77;;;2.30;;
48002;SDS011;33768;48.578;11.574;2022-07-29T00:56:26;5.50;;;2.53;;
48002;SDS011;33768;48.578;11.574;2022-07-29T00:59:30;3.07;;;2.53;;
48002;SDS011;33768;48.578;11.574;2022-07-29T01:02:35;2.67;;;2.37;;
48002;SDS011;33768;48.578;11.574;2022-07-29T01:05:39;3.23;;;2.20;;
48002;SDS011;33768;48.578;11.574;2022-07-29T01:08:45;3.37;;;2.37;;
48002;SDS011;33768;48.578;11.574;2022-07-29T01:11:51;4.13;;;2.20;;
48002;SDS011;33768;48.578;11.574;2022-07-29T01:14:56;2.47;;;2.27;;
48002;SDS011;33768;48.578;11.574;2022-07-29T01:24:14;4.07;;;2.47;;
48002;SDS011;33768;48.578;11.574;2022-07-29T01:27:41;3.40;;;2.53;;
48002;SDS011;33768;48.578;11.574;2022-07-29T01:30:48;2.80;;;2.40;;
48002;SDS011;33768;48.578;11.574;2022-07-29T01:33:57;3.67;;;2.80;;
48002;SDS011;33768;48.578;11.574;2022-07-29T01:37:12;3.47;;;2.77;;
48002;SDS011;33768;48.578;11.574;2022-07-29T01:40:24;4.07;;;2.70;;
48002;SDS011;33768;48.578;11.574;2022-07-29T01:43:36;3.73;;;2.57;;
48002;SDS011;33768;48.578;11.574;2022-07-29T01:46:49;3.13;;;2.83;;
48002;SDS011;33768;48.578;11.574;2022-07-29T01:49:58;3.07;;;2.60;;
48002;SDS011;33768;48.578;11.574;2022-07-29T01:53:05;5.50;;;2.50;;
48002;SDS011;33768;48.578;11.574;2022-07-29T01:56:13;2.90;;;2.43;;
48002;SDS011;33768;48.578;11.574;2022-07-29T01:59:18;3.17;;;2.60;;
48002;SDS011;33768;48.578;11.574;2022-07-29T02:02:24;3.13;;;2.70;;
48002;SDS011;33768;48.578;11.574;2022-07-29T02:05:30;2.43;;;2.20;;
48002;SDS011;33768;48.578;11.574;2022-07-29T02:08:38;3.87;;;2.97;;
48002;SDS011;33768;48.578;11.574;2022-07-29T02:11:46;3.83;;;2.63;;
48002;SDS011;33768;48.578;11.574;2022-07-29T02:14:53;5.70;;;3.07;;
48002;SDS011;33768;48.578;11.574;2022-07-29T02:18:01;3.33;;;2.67;;
48002;SDS011;33768;48.578;11.574;2022-07-29T02:21:10;3.10;;;2.80;;
48002;SDS011;33768;48.578;11.574;2022-07-29T02:24:17;3.10;;;2.77;;
48002;SDS011;33768;48.578;11.574;2022-07-29T02:27:22;3.40;;;2.50;;
48002;SDS011;33768;48.578;11.574;2022-07-29T02:30:28;3.00;;;2.70;;
48002;SDS011;33768;48.578;11.574;2022-07-29T02:33:34;3.63;;;2.87;;
48002;SDS011;33768;48.578;11.574;2022-07-29T02:36:39;2.53;;;2.33;;
48002;SDS011;33768;48.578;11.574;2022-07-29T02:39:45;4.17;;;2.67;;
48002;SDS011;33768;48.578;11.574;2022-07-29T02:42:52;3.53;;;2.67;;
48002;SDS011;33768;48.578;11.574;2022-07-29T02:45:56;3.63;;;2.93;;
48002;SDS011;33768;48.578;11.574;2022-07-29T02:49:07;2.90;;;2.60;;
48002;SDS011;33768;48.578;11.574;2022-07-29T02:52:17;3.20;;;2.90;;
48002;SDS011;33768;48.578;11.574;2022-07-29T02:55:40;4.43;;;2.77;;
48002;SDS011;33768;48.578;11.574;2022-07-29T02:58:54;2.87;;;2.63;;
48002;SDS011;33768;48.578;11.574;2022-07-29T03:01:59;2.50;;;2.30;;
48002;SDS011;33768;48.578;11.574;2022-07-29T03:05:04;3.73;;;2.70;;
48002;SDS011;33768;48.578;11.574;2022-07-29T03:08:12;2.83;;;2.53;;
48002;SDS011;33768;48.578;11.574;2022-07-29T03:11:18;5.53;;;2.40;;
48002;SDS011;33768;48.578;11.574;2022-07-29T03:14:22;4.93;;;2.40;;
48002;SDS011;33768;48.578;11.574;2022-07-29T03:17:27;2.83;;;2.63;;
48002;SDS011;33768;48.578;11.574;2022-07-29T03:20:31;3.00;;;2.53;;
48002;SDS011;33768;48.578;11.574;2022-07-29T03:23:36;4.17;;;2.70;;
48002;SDS011;33768;48.578;11.574;2022-07-29T03:26:40;3.20;;;2.77;;
48002;SDS011;33768;48.578;11.574;2022-07-29T03:29:44;3.60;;;2.73;;
48002;SDS011;33768;48.578;11.574;2022-07-29T03:32:49;3.53;;;2.60;;
48002;SDS011;33768;48.578;11.574;2022-07-29T03:35:54;4.07;;;2.47;;
48002;SDS011;33768;48.578;11.574;2022-07-29T03:38:58;3.53;;;2.73;;
48002;SDS011;33768;48.578;11.574;2022-07-29T03:42:03;3.70;;;2.60;;
48002;SDS011;33768;48.578;11.574;2022-07-29T03:45:10;2.73;;;2.37;;
48002;SDS011;33768;48.578;11.574;2022-07-29T03:48:19;3.10;;;2.60;;
48002;SDS011;33768;48.578;11.574;2022-07-29T03:51:25;5.13;;;2.50;;
48002;SDS011;33768;48.578;11.574;2022-07-29T03:54:30;3.13;;;2.60;;
48002;SDS011;33768;48.578;11.574;2022-07-29T03:57:34;3.63;;;2.67;;
48002;SDS011;33768;48.578;11.574;2022-07-29T04:00:41;3.93;;;2.90;;
48002;SDS011;33768;48.578;11.574;2022-07-29T04:03:46;3.50;;;2.63;;
48002;SDS011;33768;48.578;11.574;2022-07-29T04:06:50;4.70;;;2.60;;
48002;SDS011;33768;48.578;11.574;2022-07-29T04:09:54;2.77;;;2.47;;
48002;SDS011;33768;48.578;11.574;2022-07-29T04:12:59;3.33;;;2.53;;
48002;SDS011;33768;48.578;11.574;2022-07-29T04:16:03;3.47;;;2.33;;
48002;SDS011;33768;48.578;11.574;2022-07-29T04:19:08;4.37;;;2.40;;
48002;SDS011;33768;48.578;11.574;2022-07-29T04:22:12;2.90;;;2.53;;
48002;SDS011;33768;48.578;11.574;2022-07-29T04:25:16;3.23;;;2.73;;
48002;SDS011;33768;48.578;11.574;2022-07-29T04:28:20;3.23;;;2.40;;
48002;SDS011;33768;48.578;11.574;2022-07-29T04:31:25;2.30;;;2.10;;
48002;SDS011;33768;48.578;11.574;2022-07-29T04:34:29;3.73;;;2.43;;
48002;SDS011;33768;48.578;11.574;2022-07-29T04:37:33;3.60;;;2.17;;
48002;SDS011;33768;48.578;11.574;2022-07-29T04:40:37;2.27;;;2.03;;
48002;SDS011;33768;48.578;11.574;2022-07-29T04:43:41;4.90;;;2.40;;
48002;SDS011;33768;48.578;11.574;2022-07-29T04:46:45;2.37;;;2.10;;
48002;SDS011;33768;48.578;11.574;2022-07-29T04:49:50;2.67;;;2.30;;
48002;SDS011;33768;48.578;11.574;2022-07-29T04:52:54;5.40;;;2.00;;
48002;SDS011;33768;48.578;11.574;2022-07-29T04:55:58;5.13;;;2.50;;
48002;SDS011;33768;48.578;11.574;2022-07-29T04:59:02;4.10;;;2.30;;
48002;SDS011;33768;48.578;11.574;2022-07-29T05:02:06;2.43;;;2.23;;
48002;SDS011;33768;48.578;11.574;2022-07-29T05:05:10;2.83;;;2.10;;
48002;SDS011;33768;48.578;11.574;2022-07-29T05:08:15;3.67;;;2.67;;
48002;SDS011;33768;48.578;11.574;2022-07-29T05:11:19;3.30;;;2.13;;
48002;SDS011;33768;48.578;11.574;2022-07-29T05:14:23;2.30;;;2.10;;
48002;SDS011;33768;48.578;11.574;2022-07-29T05:17:27;2.93;;;2.20;;
48002;SDS011;33768;48.578;11.574;2022-07-29T05:20:31;3.10;;;2.27;;
48002;SDS011;33768;48.578;11.574;2022-07-29T05:23:36;2.53;;;2.00;;
48002;SDS011;33768;48.578;11.574;2022-07-29T05:26:40;3.60;;;2.00;;
48002;SDS011;33768;48.578;11.574;2022-07-29T05:29:44;2.10;;;1.90;;
48002;SDS011;33768;48.578;11.574;2022-07-29T05:32:48;2.47;;;2.10;;
48002;SDS011;33768;48.578;11.574;2022-07-29T05:35:52;3.53;;;2.17;;
48002;SDS011;33768;48.578;11.574;2022-07-29T05:38:56;4.23;;;2.27;;
48002;SDS011;33768;48.578;11.574;2022-07-29T05:42:01;3.03;;;2.17;;
48002;SDS011;33768;48.578;11.574;2022-07-29T05:45:06;2.33;;;2.13;;
48002;SDS011;33768;48.578;11.574;2022-07-29T05:48:10;3.73;;;2.07;;
48002;SDS011;33768;48.578;11.574;2022-07-29T05:51:14;4.97;;;2.40;;
48002;SDS011;33768;48.578;11.574;2022-07-29T05:54:19;4.17;;;2.40;;
48002;SDS011;33768;48.578;11.574;2022-07-29T05:57:23;3.57;;;2.20;;
48002;SDS011;33768;48.578;11.574;2022-07-29T06:00:28;4.33;;;2.70;;
48002;SDS011;33768;48.578;11.574;2022-07-29T06:03:33;4.90;;;2.70;;
48002;SDS011;33768;48.578;11.574;2022-07-29T06:06:38;3.20;;;2.87;;
48002;SDS011;33768;48.578;11.574;2022-07-29T06:09:42;3.57;;;2.70;;
48002;SDS011;33768;48.578;11.574;2022-07-29T06:12:46;2.50;;;2.30;;
48002;SDS011;33768;48.578;11.574;2022-07-29T06:15:50;3.23;;;2.80;;
48002;SDS011;33768;48.578;11.574;2022-07-29T06:18:54;3.30;;;2.50;;
48002;SDS011;33768;48.578;11.574;2022-07-29T06:21:58;5.20;;;2.53;;
48002;SDS011;33768;48.578;11.574;2022-07-29T06:25:02;2.67;;;2.23;;
48002;SDS011;33768;48.578;11.574;2022-07-29T06:28:07;2.40;;;2.10;;
48002;SDS011;33768;48.578;11.574;2022-07-29T06:31:11;2.57;;;2.03;;
48002;SDS011;33768;48.578;11.574;2022-07-29T06:34:15;2.17;;;1.90;;
48002;SDS011;33768;48.578;11.574;2022-07-29T06:37:20;2.37;;;1.80;;
48002;SDS011;33768;48.578;11.574;2022-07-29T06:40:25;1.77;;;1.67;;
48002;SDS011;33768;48.578;11.574;2022-07-29T06:43:49;1.60;;;1.50;;
48002;SDS011;33768;48.578;11.574;2022-07-29T06:46:54;2.73;;;1.70;;
48002;SDS011;33768;48.578;11.574;2022-07-29T06:49:59;2.67;;;1.47;;
48002;SDS011;33768;48.578;11.574;2022-07-29T06:53:03;1.97;;;1.47;;
48002;SDS011;33768;48.578;11.574;2022-07-29T06:56:08;1.63;;;1.50;;
48002;SDS011;33768;48.578;11.574;2022-07-29T06:59:12;2.00;;;1.43;;
48002;SDS011;33768;48.578;11.574;2022-07-29T07:02:17;2.47;;;1.30;;
48002;SDS011;33768;48.578;11.574;2022-07-29T07:05:21;4.93;;;1.47;;
48002;SDS011;33768;48.578;11.574;2022-07-29T07:08:25;1.60;;;1.50;;
48002;SDS011;33768;48.578;11.574;2022-07-29T07:11:29;1.73;;;1.50;;
48002;SDS011;33768;48.578;11.574;2022-07-29T07:14:33;7.17;;;1.60;;
48002;SDS011;33768;48.578;11.574;2022-07-29T07:17:37;2.50;;;1.60;;
48002;SDS011;33768;48.578;11.574;2022-07-29T07:20:42;1.60;;;1.27;;
48002;SDS011;33768;48.578;11.574;2022-07-29T07:23:46;2.17;;;1.50;;
48002;SDS011;33768;48.578;11.574;2022-07-29T07:26:50;1.90;;;1.40;;
48002;SDS011;33768;48.578;11.574;2022-07-29T07:29:54;1.80;;;1.40;;
48002;SDS011;33768;48.578;11.574;2022-07-29T07:32:59;4.27;;;1.50;;
48002;SDS011;33768;48.578;11.574;2022-07-29T07:36:03;3.67;;;1.57;;
48002;SDS011;33768;48.578;11.574;2022-07-29T07:39:07;1.40;;;1.20;;
48002;SDS011;33768;48.578;11.574;2022-07-29T07:42:12;4.70;;;1.30;;
48002;SDS011;33768;48.578;11.574;2022-07-29T07:45:16;2.20;;;1.07;;
48002;SDS011;33768;48.578;11.574;2022-07-29T07:48:21;1.73;;;1.10;;
48002;SDS011;33768;48.578;11.574;2022-07-29T07:51:25;2.30;;;0.87;;
48002;SDS011;33768;48.578;11.574;2022-07-29T07:54:29;1.85;;;1.20;;
48002;SDS011;33768;48.578;11.574;2022-07-29T07:57:34;1.65;;;0.95;;
48002;SDS011;33768;48.578;11.574;2022-07-29T08:00:38;1.10;;;1.00;;
48002;SDS011;33768;48.578;11.574;2022-07-29T08:03:42;1.20;;;1.05;;
48002;SDS011;33768;48.578;11.574;2022-07-29T08:06:46;2.72;;;1.05;;
48002;SDS011;33768;48.578;11.574;2022-07-29T08:09:53;1.20;;;1.00;;
48002;SDS011;33768;48.578;11.574;2022-07-29T08:12:57;1.45;;;0.98;;
48002;SDS011;33768;48.578;11.574;2022-07-29T08:16:02;3.58;;;1.30;;
48002;SDS011;33768;48.578;11.574;2022-07-29T08:19:14;1.40;;;1.00;;
48002;SDS011;33768;48.578;11.574;2022-07-29T08:22:19;3.72;;;1.10;;
48002;SDS011;33768;48.578;11.574;2022-07-29T08:25:23;3.28;;;1.10;;
48002;SDS011;33768;48.578;11.574;2022-07-29T08:28:27;1.42;;;0.90;;
48002;SDS011;33768;48.578;11.574;2022-07-29T08:31:31;1.40;;;0.90;;
48002;SDS011;33768;48.578;11.574;2022-07-29T08:34:35;1.17;;;1.08;;
48002;SDS011;33768;48.578;11.574;2022-07-29T08:37:39;1.70;;;0.85;;
48002;SDS011;33768;48.578;11.574;2022-07-29T08:40:44;1.02;;;0.93;;
48002;SDS011;33768;48.578;11.574;2022-07-29T08:43:48;1.20;;;1.10;;
48002;SDS011;33768;48.578;11.574;2022-07-29T08:46:53;3.97;;;1.10;;
48002;SDS011;33768;48.578;11.574;2022-07-29T08:49:58;2.30;;;1.00;;
48002;SDS011;33768;48.578;11.574;2022-07-29T08:53:02;1.30;;;1.05;;
48002;SDS011;33768;48.578;11.574;2022-07-29T08:56:07;1.27;;;1.00;;
48002;SDS011;33768;48.578;11.574;2022-07-29T08:59:11;2.83;;;1.38;;
48002;SDS011;33768;48.578;11.574;2022-07-29T09:02:20;1.33;;;1.10;;
48002;SDS011;33768;48.578;11.574;2022-07-29T09:05:26;1.13;;;0.82;;
48002;SDS011;33768;48.578;11.574;2022-07-29T09:08:32;1.17;;;0.90;;
48002;SDS011;33768;48.578;11.574;2022-07-29T09:11:36;2.30;;;1.00;;
48002;SDS011;33768;48.578;11.574;2022-07-29T09:14:41;0.90;;;0.82;;
48002;SDS011;33768;48.578;11.574;2022-07-29T09:17:46;1.50;;;1.20;;
48002;SDS011;33768;48.578;11.574;2022-07-29T09:20:52;1.13;;;1.00;;
48002;SDS011;33768;48.578;11.574;2022-07-29T09:24:15;1.40;;;1.00;;
48002;SDS011;33768;48.578;11.574;2022-07-29T09:27:25;3.15;;;0.98;;
48002;SDS011;33768;48.578;11.574;2022-07-29T09:30:30;1.50;;;1.00;;
48002;SDS011;33768;48.578;11.574;2022-07-29T09:33:34;1.45;;;1.00;;
48002;SDS011;33768;48.578;11.574;2022-07-29T09:39:50;3.15;;;1.00;;
48002;SDS011;33768;48.578;11.574;2022-07-29T09:42:54;1.42;;;1.00;;
48002;SDS011;33768;48.578;11.574;2022-07-29T09:46:19;1.48;;;1.10;;
48002;SDS011;33768;48.578;11.574;2022-07-29T09:49:23;2.13;;;0.93;;
48002;SDS011;33768;48.578;11.574;2022-07-29T09:52:28;1.05;;;0.90;;
48002;SDS011;33768;48.578;11.574;2022-07-29T09:55:40;0.90;;;0.80;;
48002;SDS011;33768;48.578;11.574;2022-07-29T09:59:04;3.13;;;0.90;;
48002;SDS011;33768;48.578;11.574;2022-07-29T10:02:12;2.00;;;1.00;;
48002;SDS011;33768;48.578;11.574;2022-07-29T10:05:23;1.95;;;1.40;;
48002;SDS011;33768;48.578;11.574;2022-07-29T10:08:29;1.55;;;1.08;;
48002;SDS011;33768;48.578;11.574;2022-07-29T10:11:34;4.32;;;1.10;;
48002;SDS011;33768;48.578;11.574;2022-07-29T10:14:38;1.65;;;1.10;;
48002;SDS011;33768;48.578;11.574;2022-07-29T10:17:43;1.30;;;1.02;;
48002;SDS011;33768;48.578;11.574;2022-07-29T10:20:47;1.50;;;1.00;;
48002;SDS011;33768;48.578;11.574;2022-07-29T10:23:52;5.03;;;1.10;;
48002;SDS011;33768;48.578;11.574;2022-07-29T10:26:57;2.38;;;1.10;;
48002;SDS011;33768;48.578;11.574;2022-07-29T10:30:03;2.03;;;1.10;;
48002;SDS011;33768;48.578;11.574;2022-07-29T10:33:21;2.28;;;1.00;;
48002;SDS011;33768;48.578;11.574;2022-07-29T10:36:46;1.45;;;0.88;;
48002;SDS011;33768;48.578;11.574;2022-07-29T10:39:55;1.92;;;1.23;;
48002;SDS011;33768;48.578;11.574;2022-07-29T10:43:33;1.17;;;1.08;;
48002;SDS011;33768;48.578;11.574;2022-07-29T10:46:41;1.20;;;1.00;;
48002;SDS011;33768;48.578;11.574;2022-07-29T10:49:59;1.58;;;1.00;;
48002;SDS011;33768;48.578;11.574;2022-07-29T10:53:06;2.35;;;1.20;;
48002;SDS011;33768;48.578;11.574;2022-07-29T10:56:23;3.00;;;1.35;;
48002;SDS011;33768;48.578;11.574;2022-07-29T10:59:29;1.98;;;1.35;;
48002;SDS011;33768;48.578;11.574;2022-07-29T11:05:53;1.27;;;1.10;;
48002;SDS011;33768;48.578;11.574;2022-07-29T11:09:14;1.45;;;1.10;;
48002;SDS011;33768;48.578;11.574;2022-07-29T11:15:52;2.70;;;1.38;;
48002;SDS011;33768;48.578;11.574;2022-07-29T11:22:31;1.60;;;1.50;;
48002;SDS011;33768;48.578;11.574;2022-07-29T11:25:36;4.47;;;1.60;;
48002;SDS011;33768;48.578;11.574;2022-07-29T11:31:54;4.28;;;1.77;;
48002;SDS011;33768;48.578;11.574;2022-07-29T11:35:20;3.20;;;1.55;;
48002;SDS011;33768;48.578;11.574;2022-07-29T11:38:27;2.00;;;1.70;;
48002;SDS011;33768;48.578;11.574;2022-07-29T11:41:32;2.58;;;1.75;;
48002;SDS011;33768;48.578;11.574;2022-07-29T11:44:53;2.50;;;1.90;;
48002;SDS011;33768;48.578;11.574;2022-07-29T11:48:15;1.70;;;1.50;;
48002;SDS011;33768;48.578;11.574;2022-07-29T11:51:17;2.45;;;1.70;;
48002;SDS011;33768;48.578;11.574;2022-07-29T11:54:23;2.83;;;1.90;;
48002;SDS011;33768;48.578;11.574;2022-07-29T11:57:29;4.18;;;1.88;;
48002;SDS011;33768;48.578;11.574;2022-07-29T12:00:36;3.80;;;1.95;;
48002;SDS011;33768;48.578;11.574;2022-07-29T12:03:42;3.28;;;2.03;;
48002;SDS011;33768;48.578;11.574;2022-07-29T12:06:50;2.92;;;2.13;;
48002;SDS011;33768;48.578;11.574;2022-07-29T12:09:55;2.60;;;1.92;;
48002;SDS011;33768;48.578;11.574;2022-07-29T12:12:59;3.80;;;2.00;;
48002;SDS011;33768;48.578;11.574;2022-07-29T12:16:03;7.00;;;2.13;;
48002;SDS011;33768;48.578;11.574;2022-07-29T12:19:07;2.53;;;1.77;;
48002;SDS011;33768;48.578;11.574;2022-07-29T12:22:12;4.55;;;2.00;;
48002;SDS011;33768;48.578;11.574;2022-07-29T12:25:16;4.45;;;2.15;;
48002;SDS011;33768;48.578;11.574;2022-07-29T12:28:21;4.53;;;1.90;;
48002;SDS011;33768;48.578;11.574;2022-07-29T12:31:26;5.53;;;1.85;;
48002;SDS011;33768;48.578;11.574;2022-07-29T12:34:30;2.17;;;1.92;;
48002;SDS011;33768;48.578;11.574;2022-07-29T12:37:35;2.92;;;1.80;;
48002;SDS011;33768;48.578;11.574;2022-07-29T12:40:44;1.95;;;1.73;;
48002;SDS011;33768;48.578;11.574;2022-07-29T12:43:53;4.82;;;1.92;;
48002;SDS011;33768;48.578;11.574;2022-07-29T12:47:04;3.65;;;2.00;;
48002;SDS011;33768;48.578;11.574;2022-07-29T12:50:09;3.58;;;1.77;;
48002;SDS011;33768;48.578;11.574;2022-07-29T12:53:17;3.90;;;1.58;;
48002;SDS011;33768;48.578;11.574;2022-07-29T12:56:21;4.90;;;1.73;;
48002;SDS011;33768;48.578;11.574;2022-07-29T12:59:25;1.80;;;1.67;;
48002;SDS011;33768;48.578;11.574;2022-07-29T13:02:30;3.45;;;1.83;;
48002;SDS011;33768;48.578;11.574;2022-07-29T13:05:40;3.90;;;1.80;;
48002;SDS011;33768;48.578;11.574;2022-07-29T13:09:20;3.05;;;1.83;;
48002;SDS011;33768;48.578;11.574;2022-07-29T13:12:23;3.58;;;1.70;;
48002;SDS011;33768;48.578;11.574;2022-07-29T13:15:27;2.50;;;1.60;;
48002;SDS011;33768;48.578;11.574;2022-07-29T13:18:33;3.33;;;1.67;;
48002;SDS011;33768;48.578;11.574;2022-07-29T13:21:39;3.72;;;1.80;;
48002;SDS011;33768;48.578;11.574;2022-07-29T13:27:58;6.63;;;1.83;;
48002;SDS011;33768;48.578;11.574;2022-07-29T13:31:03;4.28;;;1.70;;
48002;SDS011;33768;48.578;11.574;2022-07-29T13:34:08;4.68;;;2.10;;
48002;SDS011;33768;48.578;11.574;2022-07-29T13:37:13;3.55;;;1.83;;
48002;SDS011;33768;48.578;11.574;2022-07-29T13:40:17;2.53;;;1.55;;
48002;SDS011;33768;48.578;11.574;2022-07-29T13:43:22;2.88;;;1.75;;
48002;SDS011;33768;48.578;11.574;2022-07-29T13:46:26;4.90;;;1.63;;
48002;SDS011;33768;48.578;11.574;2022-07-29T13:49:30;4.68;;;1.80;;
48002;SDS011;33768;48.578;11.574;2022-07-29T13:52:34;2.15;;;1.85;;
48002;SDS011;33768;48.578;11.574;2022-07-29T13:55:39;3.75;;;1.60;;
48002;SDS011;33768;48.578;11.574;2022-07-29T13:58:43;3.83;;;1.55;;
48002;SDS011;33768;48.578;11.574;2022-07-29T14:01:47;6.05;;;1.75;;
48002;SDS011;33768;48.578;11.574;2022-07-29T14:04:54;2.63;;;1.50;;
48002;SDS011;33768;48.578;11.574;2022-07-29T14:07:58;2.38;;;1.30;;
48002;SDS011;33768;48.578;11.574;2022-07-29T14:11:03;2.28;;;1.88;;
48002;SDS011;33768;48.578;11.574;2022-07-29T14:14:08;2.95;;;1.65;;
48002;SDS011;33768;48.578;11.574;2022-07-29T14:17:14;7.90;;;2.17;;
48002;SDS011;33768;48.578;11.574;2022-07-29T14:20:19;11.57;;;2.75;;
48002;SDS011;33768;48.578;11.574;2022-07-29T14:23:23;22.70;;;4.97;;
48002;SDS011;33768;48.578;11.574;2022-07-29T14:26:27;20.25;;;4.03;;
48002;SDS011;33768;48.578;11.574;2022-07-29T14:29:31;4.18;;;1.90;;
48002;SDS011;33768;48.578;11.574;2022-07-29T14:32:36;3.38;;;1.88;;
48002;SDS011;33768;48.578;11.574;2022-07-29T14:35:40;4.78;;;1.63;;
48002;SDS011;33768;48.578;11.574;2022-07-29T14:38:44;3.13;;;1.30;;
48002;SDS011;33768;48.578;11.574;2022-07-29T14:41:48;3.60;;;1.60;;
48002;SDS011;33768;48.578;11.574;2022-07-29T14:44:53;2.90;;;1.90;;
48002;SDS011;33768;48.578;11.574;2022-07-29T14:47:57;4.15;;;1.90;;
48002;SDS011;33768;48.578;11.574;2022-07-29T14:51:02;4.22;;;1.65;;
48002;SDS011;33768;48.578;11.574;2022-07-29T14:54:06;4.97;;;1.88;;
48002;SDS011;33768;48.578;11.574;2022-07-29T14:57:10;5.32;;;1.92;;
48002;SDS011;33768;48.578;11.574;2022-07-29T15:00:15;1.80;;;1.60;;
48002;SDS011;33768;48.578;11.574;2022-07-29T15:03:20;3.72;;;1.77;;
48002;SDS011;33768;48.578;11.574;2022-07-29T15:06:24;3.35;;;1.92;;
48002;SDS011;33768;48.578;11.574;2022-07-29T15:09:28;3.05;;;2.05;;
48002;SDS011;33768;48.578;11.574;2022-07-29T15:12:32;2.78;;;2.15;;
48002;SDS011;33768;48.578;11.574;2022-07-29T15:15:36;6.10;;;1.77;;
48002;SDS011;33768;48.578;11.574;2022-07-29T15:18:41;4.10;;;2.00;;
48002;SDS011;33768;48.578;11.574;2022-07-29T15:21:45;3.67;;;1.95;;
48002;SDS011;33768;48.578;11.574;2022-07-29T15:24:49;4.10;;;2.05;;
48002;SDS011;33768;48.578;11.574;2022-07-29T15:27:53;4.03;;;2.15;;
48002;SDS011;33768;48.578;11.574;2022-07-29T15:30:57;7.20;;;2.28;;
48002;SDS011;33768;48.578;11.574;2022-07-29T15:34:02;2.78;;;1.80;;
48002;SDS011;33768;48.578;11.574;2022-07-29T15:37:06;4.60;;;2.40;;
48002;SDS011;33768;48.578;11.574;2022-07-29T15:40:10;5.72;;;2.42;;
48002;SDS011;33768;48.578;11.574;2022-07-29T15:43:14;3.35;;;2.00;;
48002;SDS011;33768;48.578;11.574;2022-07-29T15:46:19;10.27;;;2.33;;
48002;SDS011;33768;48.578;11.574;2022-07-29T15:50:02;8.73;;;2.60;;
48002;SDS011;33768;48.578;11.574;2022-07-29T15:53:07;4.47;;;2.40;;
48002;SDS011;33768;48.578;11.574;2022-07-29T15:56:11;2.20;;;1.95;;
48002;SDS011;33768;48.578;11.574;2022-07-29T15:59:15;3.58;;;2.10;;
48002;SDS011;33768;48.578;11.574;2022-07-29T16:02:20;5.07;;;1.90;;
48002;SDS011;33768;48.578;11.574;2022-07-29T16:05:23;3.67;;;1.63;;
48002;SDS011;33768;48.578;11.574;2022-07-29T16:08:27;5.28;;;2.30;;
48002;SDS011;33768;48.578;11.574;2022-07-29T16:11:32;5.82;;;2.10;;
48002;SDS011;33768;48.578;11.574;2022-07-29T16:14:36;2.72;;;1.88;;
48002;SDS011;33768;48.578;11.574;2022-07-29T16:17:40;4.57;;;2.40;;
48002;SDS011;33768;48.578;11.574;2022-07-29T16:20:44;2.75;;;1.80;;
48002;SDS011;33768;48.578;11.574;2022-07-29T16:23:48;5.03;;;2.20;;
48002;SDS011;33768;48.578;11.574;2022-07-29T16:26:53;3.63;;;2.13;;
48002;SDS011;33768;48.578;11.574;2022-07-29T16:29:57;3.63;;;2.00;;
48002;SDS011;33768;48.578;11.574;2022-07-29T16:33:02;4.68;;;1.95;;
48002;SDS011;33768;48.578;11.574;2022-07-29T16:36:06;4.10;;;2.15;;
48002;SDS011;33768;48.578;11.574;2022-07-29T16:39:10;4.05;;;1.88;;
48002;SDS011;33768;48.578;11.574;2022-07-29T16:42:15;3.30;;;1.70;;
48002;SDS011;33768;48.578;11.574;2022-07-29T16:45:19;2.83;;;2.10;;
48002;SDS011;33768;48.578;11.574;2022-07-29T16:48:23;4.10;;;2.00;;
48002;SDS011;33768;48.578;11.574;2022-07-29T16:51:27;4.63;;;1.80;;
48002;SDS011;33768;48.578;11.574;2022-07-29T16:54:32;3.83;;;2.03;;
48002;SDS011;33768;48.578;11.574;2022-07-29T16:57:37;5.37;;;2.10;;
48002;SDS011;33768;48.578;11.574;2022-07-29T17:00:41;4.25;;;1.80;;
48002;SDS011;33768;48.578;11.574;2022-07-29T17:03:45;7.97;;;1.80;;
48002;SDS011;33768;48.578;11.574;2022-07-29T17:07:08;2.30;;;1.60;;
48002;SDS011;33768;48.578;11.574;2022-07-29T17:10:12;3.17;;;1.93;;
48002;SDS011;33768;48.578;11.574;2022-07-29T17:13:16;4.13;;;1.73;;
48002;SDS011;33768;48.578;11.574;2022-07-29T17:16:20;3.87;;;1.83;;
48002;SDS011;33768;48.578;11.574;2022-07-29T17:19:28;3.10;;;1.73;;
48002;SDS011;33768;48.578;11.574;2022-07-29T17:22:34;2.67;;;1.87;;
48002;SDS011;33768;48.578;11.574;2022-07-29T17:25:39;2.97;;;2.10;;
48002;SDS011;33768;48.578;11.574;2022-07-29T17:28:43;3.57;;;1.80;;
48002;SDS011;33768;48.578;11.574;2022-07-29T17:36:40;1.80;;;1.67;;
48002;SDS011;33768;48.578;11.574;2022-07-29T17:39:44;4.00;;;1.73;;
48002;SDS011;33768;48.578;11.574;2022-07-29T17:42:48;1.93;;;1.60;;
48002;SDS011;33768;48.578;11.574;2022-07-29T17:45:53;1.30;;;1.20;;
48002;SDS011;33768;48.578;11.574;2022-07-29T17:48:57;2.37;;;1.40;;
48002;SDS011;33768;48.578;11.574;2022-07-29T17:52:02;2.83;;;1.43;;
48002;SDS011;33768;48.578;11.574;2022-07-29T17:55:06;2.67;;;1.37;;
48002;SDS011;33768;48.578;11.574;2022-07-29T17:58:13;1.73;;;1.30;;
48002;SDS011;33768;48.578;11.574;2022-07-29T18:01:17;1.27;;;1.17;;
48002;SDS011;33768;48.578;11.574;2022-07-29T18:04:21;1.40;;;1.30;;
48002;SDS011;33768;48.578;11.574;2022-07-29T18:07:26;2.47;;;1.60;;
48002;SDS011;33768;48.578;11.574;2022-07-29T18:10:30;2.30;;;1.80;;
48002;SDS011;33768;48.578;11.574;2022-07-29T18:13:34;2.53;;;1.33;;
48002;SDS011;33768;48.578;11.574;2022-07-29T18:16:38;2.37;;;1.70;;
48002;SDS011;33768;48.578;11.574;2022-07-29T18:19:42;2.63;;;1.70;;
48002;SDS011;33768;48.578;11.574;2022-07-29T18:22:46;2.10;;;1.77;;
48002;SDS011;33768;48.578;11.574;2022-07-29T18:25:50;3.20;;;1.70;;
48002;SDS011;33768;48.578;11.574;2022-07-29T18:28:54;2.20;;;1.57;;
48002;SDS011;33768;48.578;11.574;2022-07-29T18:31:58;2.90;;;1.80;;
48002;SDS011;33768;48.578;11.574;2022-07-29T18:35:04;2.23;;;1.80;;
48002;SDS011;33768;48.578;11.574;2022-07-29T18:38:09;2.17;;;1.93;;
48002;SDS011;33768;48.578;11.574;2022-07-29T18:41:13;2.80;;;2.37;;
48002;SDS011;33768;48.578;11.574;2022-07-29T18:44:18;2.13;;;1.93;;
48002;SDS011;33768;48.578;11.574;2022-07-29T18:47:23;2.63;;;1.97;;
48002;SDS011;33768;48.578;11.574;2022-07-29T18:50:27;7.80;;;2.20;;
48002;SDS011;33768;48.578;11.574;2022-07-29T18:53:32;2.73;;;1.87;;